Time;durP1;ratioP1;P1;durP2;ratioP2;P2;SDS_P1;SDS_P2;PMS_P1;PMS_P2;Temp;Humidity;BMP_temperature;BMP_pressure;BME280_temperature;BME280_humidity;BME280_pressure;Samples;Min_cycle;Max_cycle;Signal;HPM_P1;HPM_P2
2021/07/06 00:01:06;;;;;;;3.30;3.00;;;;;;;19.01;84.47;98118.84;5010381;28;103303;-77
2021/07/06 00:03:34;;;;;;;3.33;3.03;;;;;;;18.62;87.07;98123.41;5014940;28;103939;-77
2021/07/06 00:06:03;;;;;;;3.87;3.50;;;;;;;18.46;88.50;98111.78;5004097;28;105024;-77
2021/07/06 00:08:31;;;;;;;5.20;3.60;;;;;;;18.32;89.43;98117.84;5005986;28;104404;-78
2021/07/06 00:10:59;;;;;;;3.13;2.83;;;;;;;18.64;88.50;98114.22;5005693;28;102773;-77
2021/07/06 00:13:27;;;;;;;6.07;4.10;;;;;;;18.37;89.54;98110.13;5012614;28;104076;-77
2021/07/06 00:15:55;;;;;;;5.18;3.80;;;;;;;18.37;89.17;98099.44;5009024;28;103215;-77
2021/07/06 00:18:25;;;;;;;3.97;3.10;;;;;;;18.69;87.88;98109.19;5005919;28;102985;-77
2021/07/06 00:20:52;;;;;;;3.63;2.85;;;;;;;18.87;86.71;98109.72;5006009;28;102758;-77
2021/07/06 00:23:20;;;;;;;2.80;2.50;;;;;;;18.87;86.28;98112.41;5005743;28;103649;-77
2021/07/06 00:25:48;;;;;;;3.60;3.08;;;;;;;18.80;86.50;98106.13;5005117;28;103684;-77
2021/07/06 00:28:16;;;;;;;2.50;2.30;;;;;;;18.96;85.94;98106.00;5006194;28;103211;-77
2021/07/06 00:30:44;;;;;;;3.88;3.00;;;;;;;18.97;86.00;98107.69;5005554;28;103223;-77
2021/07/06 00:33:12;;;;;;;2.42;2.22;;;;;;;18.86;86.84;98097.34;4987167;28;103403;-77
2021/07/06 00:35:42;;;;;;;2.70;2.50;;;;;;;19.03;85.70;98090.88;5004769;28;105048;-77
2021/07/06 00:38:10;;;;;;;4.17;3.23;;;;;;;18.47;87.91;98088.50;5006050;28;102498;-77
2021/07/06 00:40:38;;;;;;;4.28;3.33;;;;;;;18.07;91.13;98086.03;5004827;28;103218;-77
2021/07/06 00:43:06;;;;;;;3.00;2.67;;;;;;;18.44;89.59;98081.69;5014411;28;109562;-78
2021/07/06 00:45:34;;;;;;;2.50;2.30;;;;;;;18.84;86.40;98075.28;5005959;28;103858;-77
2021/07/06 00:48:02;;;;;;;2.80;2.60;;;;;;;18.90;86.40;98074.59;5005656;28;102872;-77
2021/07/06 00:50:32;;;;;;;3.33;2.85;;;;;;;18.87;86.27;98080.28;5006149;28;102715;-77
2021/07/06 00:53:01;;;;;;;2.67;2.47;;;;;;;18.84;86.50;98079.81;4999086;28;103457;-77
2021/07/06 00:55:30;;;;;;;4.53;3.00;;;;;;;18.74;86.13;98077.38;5004756;28;104452;-77
2021/07/06 00:57:58;;;;;;;5.93;3.72;;;;;;;18.19;89.88;98068.63;5004568;28;102847;-77
2021/07/06 01:00:27;;;;;;;4.32;3.35;;;;;;;18.34;90.01;98077.56;5005276;28;103062;-76
2021/07/06 01:02:55;;;;;;;5.80;3.53;;;;;;;18.16;90.15;98072.44;4993599;28;104518;-77
2021/07/06 01:05:25;;;;;;;3.65;3.25;;;;;;;18.01;91.37;98065.34;5002919;28;104819;-77
2021/07/06 01:07:53;;;;;;;3.67;3.37;;;;;;;17.85;92.06;98055.56;4997518;28;102882;-77
2021/07/06 01:10:22;;;;;;;3.08;2.78;;;;;;;18.35;89.39;98055.16;5003067;28;102828;-78
2021/07/06 01:12:53;;;;;;;4.43;3.33;;;;;;;18.17;89.57;98052.75;5004691;28;103797;-77
2021/07/06 01:15:23;;;;;;;3.95;3.55;;;;;;;17.71;93.05;98049.06;4996840;28;103751;-78
2021/07/06 01:18:01;;;;;;;3.97;3.40;;;;;;;18.07;91.03;98048.63;5005087;28;103134;-77
2021/07/06 01:20:30;;;;;;;5.50;3.45;;;;;;;18.24;88.95;98050.22;5005166;28;103072;-77
2021/07/06 01:23:00;;;;;;;5.32;3.50;;;;;;;18.20;90.06;98049.72;5004401;28;103686;-76
2021/07/06 01:25:28;;;;;;;5.38;3.30;;;;;;;18.64;87.76;98052.69;5004676;28;103840;-77
2021/07/06 01:28:00;;;;;;;3.07;2.77;;;;;;;18.54;88.15;98054.75;5005347;28;103219;-77
2021/07/06 01:30:28;;;;;;;3.45;2.90;;;;;;;18.56;88.13;98057.25;5004544;28;103174;-76
2021/07/06 01:32:56;;;;;;;4.20;3.58;;;;;;;18.16;89.10;98048.38;5004431;28;103746;-77
2021/07/06 01:35:24;;;;;;;3.72;3.33;;;;;;;17.73;92.32;98049.75;4986441;28;110435;-77
2021/07/06 01:37:57;;;;;;;6.35;3.53;;;;;;;17.67;93.55;98053.09;4994497;28;103053;-77
2021/07/06 01:40:29;;;;;;;4.20;3.20;;;;;;;17.51;93.27;98053.09;5004258;28;103234;-77
2021/07/06 01:42:58;;;;;;;3.50;2.70;;;;;;;17.77;92.96;98048.38;4994457;28;103635;-77
2021/07/06 01:45:28;;;;;;;4.23;2.60;;;;;;;17.99;91.74;98040.63;5004540;28;103390;-77
2021/07/06 01:47:58;;;;;;;3.38;2.60;;;;;;;17.98;90.58;98038.97;5004248;28;102891;-77
2021/07/06 01:50:29;;;;;;;3.85;2.42;;;;;;;18.04;90.31;98036.44;4993386;28;103128;-76
2021/07/06 01:52:59;;;;;;;3.45;2.90;;;;;;;17.62;92.61;98042.09;5004454;28;104147;-77
2021/07/06 01:55:31;;;;;;;3.40;2.60;;;;;;;17.43;94.31;98022.91;5004453;28;103853;-77
2021/07/06 01:58:01;;;;;;;2.90;2.60;;;;;;;17.60;93.29;98024.56;5011992;28;103048;-77
2021/07/06 02:00:31;;;;;;;2.75;2.55;;;;;;;17.81;92.36;98014.13;5004513;28;103618;-78
2021/07/06 02:03:00;;;;;;;4.60;2.90;;;;;;;17.82;91.59;98007.81;4991410;28;104425;-77
2021/07/06 02:05:31;;;;;;;3.20;2.90;;;;;;;18.00;90.01;98007.53;4994968;28;112365;-77
2021/07/06 02:07:59;;;;;;;3.60;2.20;;;;;;;18.11;90.13;98001.81;4979695;28;103265;-77
2021/07/06 02:10:29;;;;;;;3.87;2.90;;;;;;;17.97;90.30;98011.41;4991279;28;103004;-77
2021/07/06 02:12:59;;;;;;;2.47;2.27;;;;;;;18.36;88.45;98008.69;5010631;28;103798;-77
2021/07/06 02:15:28;;;;;;;2.47;2.20;;;;;;;18.30;88.87;98006.75;5010401;28;107552;-78
2021/07/06 02:17:57;;;;;;;4.53;2.45;;;;;;;18.00;89.55;98004.88;4989745;28;103157;-77
2021/07/06 02:20:25;;;;;;;3.17;2.60;;;;;;;17.66;91.59;98014.00;5003782;28;102923;-77
2021/07/06 02:22:53;;;;;;;3.25;2.40;;;;;;;17.93;90.08;98005.59;5004774;28;103851;-77
2021/07/06 02:25:22;;;;;;;4.03;2.83;;;;;;;17.94;89.53;98004.56;4989708;28;103316;-77
2021/07/06 02:27:52;;;;;;;3.03;2.70;;;;;;;17.69;91.10;98000.31;5007911;28;103134;-77
2021/07/06 02:30:23;;;;;;;3.83;2.53;;;;;;;17.87;89.71;97995.59;5005621;28;104368;-77
2021/07/06 02:32:52;;;;;;;2.60;2.40;;;;;;;17.90;90.74;97989.06;4995825;28;103399;-77
2021/07/06 02:35:21;;;;;;;3.57;2.20;;;;;;;18.17;88.76;97988.59;4995294;28;103991;-77
2021/07/06 02:37:49;;;;;;;3.85;2.83;;;;;;;18.10;87.79;97984.97;5007114;28;103085;-77
2021/07/06 02:40:17;;;;;;;3.20;2.50;;;;;;;18.13;88.26;97994.47;5006386;28;102885;-77
2021/07/06 02:42:45;;;;;;;2.43;2.07;;;;;;;18.32;87.94;97983.31;5013089;28;104642;-77
2021/07/06 02:45:16;;;;;;;2.20;2.00;;;;;;;18.38;87.12;97986.13;5009761;28;103740;-76
2021/07/06 02:47:45;;;;;;;2.85;2.20;;;;;;;18.43;86.84;97989.09;5010372;28;102859;-76
2021/07/06 02:50:15;;;;;;;2.70;2.50;;;;;;;18.46;86.20;97988.75;5007139;28;103842;-77
2021/07/06 02:52:43;;;;;;;1.92;1.80;;;;;;;18.54;86.34;97977.19;5006866;28;103910;-77
2021/07/06 02:55:12;;;;;;;2.50;2.30;;;;;;;18.48;86.22;97978.75;5007040;28;103202;-76
2021/07/06 02:57:41;;;;;;;1.95;1.75;;;;;;;18.57;84.48;97982.19;5009896;28;102734;-77
2021/07/06 03:00:15;;;;;;;2.15;1.95;;;;;;;18.63;84.56;97986.84;5008131;28;103323;-76
2021/07/06 03:02:45;;;;;;;3.25;2.22;;;;;;;18.68;83.94;97994.31;5007388;28;105283;-76
2021/07/06 03:05:15;;;;;;;2.38;2.17;;;;;;;18.67;84.20;97995.31;5004106;28;104552;-77
2021/07/06 03:07:44;;;;;;;2.97;2.40;;;;;;;18.56;84.57;98001.91;5007233;28;102943;-77
2021/07/06 03:10:15;;;;;;;3.38;2.20;;;;;;;18.36;85.82;97990.81;5006823;28;103066;-77
2021/07/06 03:12:44;;;;;;;3.97;3.10;;;;;;;18.06;87.22;97998.84;4991634;28;106791;-76
2021/07/06 03:15:16;;;;;;;4.30;3.00;;;;;;;17.99;87.76;97997.88;5010201;28;103763;-76
2021/07/06 03:17:45;;;;;;;3.43;3.10;;;;;;;18.06;88.13;97993.47;5007288;28;103069;-77
2021/07/06 03:20:16;;;;;;;2.67;2.40;;;;;;;18.27;87.16;97997.22;4989057;28;103134;-79
2021/07/06 03:22:45;;;;;;;4.38;2.97;;;;;;;18.35;85.78;97982.97;5006966;28;103459;-85
2021/07/06 03:25:15;;;;;;;3.08;2.75;;;;;;;18.41;85.92;97985.75;5006873;28;103673;-86
2021/07/06 03:27:43;;;;;;;2.80;2.60;;;;;;;18.46;86.28;97987.91;5006812;28;102946;-86
2021/07/06 03:30:16;;;;;;;3.17;2.88;;;;;;;18.64;85.48;97988.47;5007078;28;103036;-86
2021/07/06 03:32:44;;;;;;;3.90;3.37;;;;;;;18.56;84.60;97980.50;5006727;28;103516;-85
2021/07/06 03:35:13;;;;;;;4.15;3.42;;;;;;;18.43;85.91;97969.56;5005747;28;103749;-85
2021/07/06 03:37:41;;;;;;;4.57;4.05;;;;;;;18.12;87.67;97968.72;4989290;28;103100;-84
2021/07/06 03:40:11;;;;;;;4.85;4.10;;;;;;;17.58;91.60;97968.63;4998058;28;103155;-87
2021/07/06 03:42:40;;;;;;;4.53;3.95;;;;;;;17.85;89.51;97957.50;4997848;28;104013;-86
2021/07/06 03:45:10;;;;;;;5.33;4.10;;;;;;;17.83;90.43;97951.50;5001969;28;103408;-86
2021/07/06 03:47:40;;;;;;;5.63;4.95;;;;;;;17.72;90.99;97956.41;5001763;28;103070;-87
2021/07/06 03:50:11;;;;;;;5.97;5.30;;;;;;;17.46;91.40;97953.94;4983790;28;103412;-86
2021/07/06 03:52:39;;;;;;;5.05;4.60;;;;;;;17.70;91.59;97953.06;4984693;28;104578;-88
2021/07/06 03:55:07;;;;;;;6.13;4.88;;;;;;;17.65;90.29;97940.25;5001898;28;103729;-85
2021/07/06 03:57:36;;;;;;;6.77;6.07;;;;;;;17.31;92.76;97937.84;4983041;28;103039;-86
2021/07/06 04:00:08;;;;;;;6.10;5.18;;;;;;;17.65;91.40;97934.91;4985143;28;103015;-83
2021/07/06 04:02:36;;;;;;;7.13;5.60;;;;;;;17.59;91.08;97938.28;5002568;28;105245;-82
2021/07/06 04:05:08;;;;;;;4.30;3.63;;;;;;;18.07;89.67;97937.19;5003583;28;104823;-83
2021/07/06 04:07:36;;;;;;;4.63;4.07;;;;;;;18.14;88.72;97937.31;5001727;28;103149;-85
2021/07/06 04:10:07;;;;;;;5.40;4.55;;;;;;;17.94;89.10;97937.75;5004313;28;102948;-82
2021/07/06 04:12:35;;;;;;;4.80;4.00;;;;;;;18.15;88.64;97949.69;5011844;28;105349;-83
2021/07/06 04:15:05;;;;;;;4.20;3.80;;;;;;;18.34;87.02;97947.38;4996985;28;103808;-86
2021/07/06 04:17:33;;;;;;;3.50;3.20;;;;;;;18.47;86.81;97946.78;5010976;28;102996;-83
2021/07/06 04:20:01;;;;;;;5.97;3.80;;;;;;;18.63;84.89;97948.53;5012717;28;102914;-84
2021/07/06 04:22:30;;;;;;;6.28;4.35;;;;;;;18.09;88.03;97947.69;5014102;28;104185;-84
2021/07/06 04:24:58;;;;;;;5.03;3.97;;;;;;;18.20;88.18;97950.81;5017935;28;103686;-85
2021/07/06 04:27:27;;;;;;;5.13;4.53;;;;;;;18.16;88.47;97948.69;5015537;28;102700;-85
2021/07/06 04:29:55;;;;;;;5.40;4.50;;;;;;;17.82;90.00;97949.03;5017741;28;103231;-83
2021/07/06 04:32:22;;;;;;;5.03;4.40;;;;;;;18.05;89.47;97930.38;4993992;28;105272;-86
2021/07/06 04:34:51;;;;;;;5.32;4.25;;;;;;;18.07;89.45;97933.69;5015032;28;105268;-86
2021/07/06 04:37:19;;;;;;;5.65;4.40;;;;;;;17.90;90.46;97925.78;5013132;28;103107;-86
2021/07/06 04:39:48;;;;;;;5.03;4.30;;;;;;;18.12;89.84;97929.47;5013103;28;103333;-86
2021/07/06 04:42:16;;;;;;;5.45;3.70;;;;;;;18.39;88.67;97920.94;5004038;28;103985;-81
2021/07/06 04:44:45;;;;;;;4.45;4.05;;;;;;;18.49;87.87;97926.09;5003968;28;103818;-81
2021/07/06 04:47:13;;;;;;;4.25;3.70;;;;;;;18.35;88.74;97929.50;5002158;28;102660;-82
2021/07/06 04:49:41;;;;;;;3.60;3.10;;;;;;;18.49;88.57;97926.94;5005486;28;103044;-77
2021/07/06 04:52:09;;;;;;;5.60;3.72;;;;;;;18.57;87.00;97930.53;4998563;28;104516;-76
2021/07/06 04:54:37;;;;;;;4.90;3.70;;;;;;;18.69;87.25;97921.91;4997989;28;104146;-80
2021/07/06 04:57:06;;;;;;;5.27;3.90;;;;;;;18.61;87.89;97911.25;4997163;28;103246;-79
2021/07/06 04:59:34;;;;;;;4.30;3.20;;;;;;;18.94;86.38;97917.16;4985149;28;103998;-78
2021/07/06 05:02:04;;;;;;;4.30;3.35;;;;;;;19.37;83.96;97910.19;4996727;28;103915;-80
2021/07/06 05:04:33;;;;;;;4.00;2.95;;;;;;;19.34;83.92;97916.72;4997439;28;103687;-79
2021/07/06 05:07:03;;;;;;;2.97;2.47;;;;;;;19.58;81.10;97913.81;4972181;28;103181;-78
2021/07/06 05:09:32;;;;;;;3.50;2.65;;;;;;;19.78;81.47;97932.81;4989561;28;104312;-81
2021/07/06 05:12:00;;;;;;;2.73;2.30;;;;;;;19.96;80.77;97927.88;4988165;28;103895;-81
2021/07/06 05:14:30;;;;;;;3.50;2.60;;;;;;;19.39;81.71;97921.59;4999460;28;104912;-81
2021/07/06 05:16:57;;;;;;;4.43;2.80;;;;;;;19.34;81.85;97926.63;5008327;28;103267;-80
2021/07/06 05:19:26;;;;;;;3.67;2.72;;;;;;;19.54;81.72;97931.25;4993093;28;103857;-80
2021/07/06 05:21:54;;;;;;;3.27;2.67;;;;;;;19.38;81.46;97923.44;5006549;28;104515;-80
2021/07/06 05:24:22;;;;;;;3.67;2.60;;;;;;;19.49;81.81;97922.13;5013747;28;103607;-81
2021/07/06 05:26:52;;;;;;;3.47;2.50;;;;;;;19.53;81.65;97915.38;5013383;28;102574;-79
2021/07/06 05:29:20;;;;;;;3.65;2.40;;;;;;;19.61;81.42;97909.94;5008193;28;102809;-83
2021/07/06 05:31:49;;;;;;;3.80;2.43;;;;;;;19.45;81.56;97899.41;5000002;28;104234;-83
2021/07/06 05:34:18;;;;;;;3.75;2.90;;;;;;;19.65;80.40;97903.16;5007447;28;104380;-82
2021/07/06 05:36:47;;;;;;;4.88;2.92;;;;;;;19.64;80.52;97896.16;5005453;28;103203;-87
2021/07/06 05:39:15;;;;;;;5.05;2.88;;;;;;;19.45;83.19;97886.03;5004478;28;103386;-84
2021/07/06 05:41:43;;;;;;;4.18;3.15;;;;;;;19.10;83.78;97877.69;5008169;28;104417;-80
2021/07/06 05:44:13;;;;;;;2.30;2.05;;;;;;;19.73;80.91;97889.69;5011688;28;103776;-80
2021/07/06 05:46:41;;;;;;;4.80;3.20;;;;;;;19.84;79.19;97897.25;4992471;28;102852;-80
2021/07/06 05:49:11;;;;;;;5.75;3.15;;;;;;;20.13;78.19;97912.41;5007524;28;103401;-80
2021/07/06 05:51:39;;;;;;;4.43;3.05;;;;;;;19.87;79.53;97921.00;5007017;28;104676;-80
2021/07/06 05:54:07;;;;;;;4.78;3.17;;;;;;;19.95;79.58;97923.56;5011059;28;103607;-80
2021/07/06 05:56:35;;;;;;;5.75;3.00;;;;;;;19.79;79.39;97923.75;5009494;28;103112;-81
2021/07/06 05:59:03;;;;;;;4.80;2.80;;;;;;;20.06;78.69;97916.88;5013899;28;103802;-81
2021/07/06 06:01:34;;;;;;;2.33;1.93;;;;;;;20.81;76.46;97911.84;5015445;28;103892;-80
2021/07/06 06:04:02;;;;;;;3.40;2.75;;;;;;;21.06;75.58;97915.78;5013292;28;103974;-80
2021/07/06 06:06:31;;;;;;;2.58;2.10;;;;;;;21.32;74.39;97918.69;5015325;28;103120;-81
2021/07/06 06:08:59;;;;;;;5.55;2.83;;;;;;;21.05;76.43;97921.34;5015633;28;102755;-81
2021/07/06 06:11:27;;;;;;;2.95;2.30;;;;;;;21.47;75.52;97923.94;5012527;28;104987;-80
2021/07/06 06:13:55;;;;;;;1.97;1.67;;;;;;;21.80;74.95;97926.78;5015559;28;104393;-80
2021/07/06 06:16:23;;;;;;;3.45;2.42;;;;;;;21.80;74.03;97934.84;4987532;28;103077;-80
2021/07/06 06:18:55;;;;;;;3.03;2.20;;;;;;;21.81;73.67;97933.84;5017984;28;102635;-81
2021/07/06 06:21:23;;;;;;;2.30;2.10;;;;;;;22.09;72.11;97923.81;5014241;28;103849;-80
2021/07/06 06:23:53;;;;;;;4.03;1.90;;;;;;;22.19;72.02;97912.69;5012760;28;103685;-80
2021/07/06 06:26:21;;;;;;;2.50;1.77;;;;;;;22.52;71.16;97922.47;5012924;28;103016;-80
2021/07/06 06:28:49;;;;;;;2.80;2.20;;;;;;;22.45;70.66;97910.91;4995959;28;103392;-81
2021/07/06 06:31:17;;;;;;;5.40;2.40;;;;;;;22.41;70.14;97908.81;5017253;28;105998;-81
2021/07/06 06:33:46;;;;;;;3.33;2.00;;;;;;;22.64;69.88;97911.16;5009263;28;105075;-81
2021/07/06 06:36:14;;;;;;;4.37;1.77;;;;;;;22.84;71.08;97901.22;5006268;28;103318;-81
2021/07/06 06:38:42;;;;;;;2.72;1.70;;;;;;;22.99;70.42;97893.75;5012943;28;103456;-80
2021/07/06 06:41:11;;;;;;;4.40;2.30;;;;;;;22.95;68.50;97890.66;5013233;28;103847;-80
2021/07/06 06:43:40;;;;;;;3.43;2.10;;;;;;;23.06;68.10;97894.56;5019273;28;103775;-81
2021/07/06 06:46:08;;;;;;;4.97;2.20;;;;;;;23.27;67.27;97902.41;5015702;28;103233;-80
2021/07/06 06:48:36;;;;;;;3.10;1.95;;;;;;;23.26;66.93;97910.72;5015981;28;103041;-79
2021/07/06 06:51:04;;;;;;;3.30;1.90;;;;;;;23.17;66.58;97918.19;4999053;28;107438;-80
2021/07/06 06:53:32;;;;;;;1.70;1.60;;;;;;;23.73;65.24;97923.06;5013743;28;104778;-79
2021/07/06 06:56:01;;;;;;;2.43;1.40;;;;;;;23.75;64.73;97937.19;5014568;28;103386;-79
2021/07/06 06:58:30;;;;;;;1.75;1.05;;;;;;;23.92;63.99;97936.47;4990206;28;103278;-79
2021/07/06 07:00:59;;;;;;;2.88;1.63;;;;;;;23.84;65.28;97935.88;4995866;28;106606;-79
2021/07/06 07:03:28;;;;;;;1.65;1.40;;;;;;;24.00;65.14;97943.53;5012143;28;103970;-79
2021/07/06 07:05:56;;;;;;;1.58;1.23;;;;;;;24.27;64.34;97945.09;5014670;28;103251;-80
2021/07/06 07:08:24;;;;;;;2.25;1.15;;;;;;;24.28;63.39;97937.81;5005513;28;103017;-79
2021/07/06 07:10:52;;;;;;;2.70;1.50;;;;;;;24.33;62.92;97935.28;5015012;28;104174;-80
2021/07/06 07:13:20;;;;;;;2.17;1.30;;;;;;;24.65;62.71;97937.78;5015635;28;104692;-80
2021/07/06 07:15:49;;;;;;;3.03;1.38;;;;;;;24.85;62.51;97942.25;5016951;28;102983;-80
2021/07/06 07:18:17;;;;;;;2.67;1.20;;;;;;;25.04;61.50;97944.00;5014855;28;103319;-79
2021/07/06 07:20:45;;;;;;;3.33;1.60;;;;;;;24.68;61.50;97926.56;5015498;28;103358;-80
2021/07/06 07:23:13;;;;;;;1.60;1.10;;;;;;;24.87;62.63;97927.47;5014896;28;103073;-80
2021/07/06 07:25:41;;;;;;;2.15;1.40;;;;;;;25.04;62.13;97933.97;5017798;28;102635;-80
2021/07/06 07:28:10;;;;;;;1.70;1.17;;;;;;;25.46;62.31;97921.53;5018356;28;103079;-80
2021/07/06 07:30:38;;;;;;;1.85;1.20;;;;;;;25.73;59.80;97925.66;5016890;28;104056;-80
2021/07/06 07:33:07;;;;;;;1.57;1.13;;;;;;;25.98;61.18;97935.56;5016471;28;104131;-80
2021/07/06 07:35:35;;;;;;;1.80;1.20;;;;;;;26.43;60.34;97926.03;5013732;28;102950;-80
2021/07/06 07:38:03;;;;;;;1.27;1.17;;;;;;;26.15;57.45;97901.44;5006247;28;103122;-80
2021/07/06 07:40:31;;;;;;;1.88;1.20;;;;;;;26.66;58.73;97900.91;5010709;28;104225;-81
2021/07/06 07:43:06;;;;;;;2.90;1.30;;;;;;;26.55;58.52;97894.41;4990384;28;103654;-80
2021/07/06 07:45:35;;;;;;;1.58;1.17;;;;;;;26.81;57.35;97899.44;5006791;28;103223;-80
2021/07/06 07:48:04;;;;;;;2.70;1.40;;;;;;;26.73;57.91;97897.03;5005906;28;105944;-80
2021/07/06 07:50:34;;;;;;;2.40;1.33;;;;;;;27.54;56.93;97896.31;5005099;28;103926;-80
2021/07/06 07:53:02;;;;;;;4.20;1.80;;;;;;;27.59;58.23;97896.44;4988064;28;104468;-80
2021/07/06 07:55:30;;;;;;;3.47;1.70;;;;;;;27.71;57.41;97889.09;5006643;28;103234;-80
2021/07/06 07:57:58;;;;;;;3.85;1.90;;;;;;;27.08;58.17;97904.44;5002130;28;103501;-80
2021/07/06 08:00:26;;;;;;;3.85;1.80;;;;;;;26.98;58.36;97894.97;5006526;28;104409;-80
2021/07/06 08:02:54;;;;;;;1.93;1.40;;;;;;;26.88;56.62;97885.78;5012311;28;105043;-78
2021/07/06 08:05:22;;;;;;;1.60;1.30;;;;;;;27.19;58.69;97885.47;5012066;28;102789;-78
2021/07/06 08:07:51;;;;;;;2.72;1.60;;;;;;;27.49;57.94;97879.91;5007314;28;103828;-80
2021/07/06 08:10:19;;;;;;;2.65;1.30;;;;;;;27.42;56.94;97877.34;5005208;28;104947;-80
2021/07/06 08:12:47;;;;;;;2.15;1.30;;;;;;;27.39;56.62;97885.09;5005058;28;103751;-80
2021/07/06 08:15:16;;;;;;;1.13;1.02;;;;;;;27.49;56.55;97886.19;5006737;28;103001;-80
2021/07/06 08:17:45;;;;;;;2.77;1.20;;;;;;;28.68;55.23;97892.66;5007021;28;102990;-80
2021/07/06 08:20:17;;;;;;;2.85;1.27;;;;;;;29.19;51.52;97892.41;5005275;28;105242;-78
2021/07/06 08:22:45;;;;;;;1.88;1.15;;;;;;;29.49;50.19;97902.13;4995085;28;104190;-78
2021/07/06 08:25:16;;;;;;;2.00;1.10;;;;;;;29.97;51.24;97885.13;5001362;28;103497;-78
2021/07/06 08:27:44;;;;;;;1.63;1.15;;;;;;;30.11;51.28;97889.94;5002545;28;103082;-78
2021/07/06 08:30:12;;;;;;;3.13;1.30;;;;;;;29.78;49.93;97925.41;5001429;28;104522;-78
2021/07/06 08:32:40;;;;;;;1.20;1.03;;;;;;;29.60;50.67;97917.53;4995933;28;103678;-78
2021/07/06 08:35:10;;;;;;;2.40;1.30;;;;;;;30.36;50.02;97925.63;4988016;28;103312;-78
2021/07/06 08:37:38;;;;;;;2.20;1.33;;;;;;;30.97;49.23;97948.09;5006793;28;102858;-78
2021/07/06 08:40:08;;;;;;;3.35;1.45;;;;;;;30.79;46.65;97957.47;4991148;28;110401;-78
2021/07/06 08:42:39;;;;;;;1.80;0.95;;;;;;;29.98;48.39;97966.53;5009593;28;104106;-78
2021/07/06 08:45:09;;;;;;;2.33;1.23;;;;;;;29.94;47.65;97981.75;4987105;28;103036;-78
2021/07/06 08:47:38;;;;;;;1.73;1.00;;;;;;;30.01;47.34;97987.81;5005551;28;102936;-78
2021/07/06 08:50:09;;;;;;;1.10;0.90;;;;;;;30.93;47.21;97990.63;5005551;28;103859;-78
2021/07/06 08:52:40;;;;;;;1.23;1.00;;;;;;;31.62;45.95;97993.41;5011261;28;103612;-78
2021/07/06 08:55:12;;;;;;;2.40;1.00;;;;;;;31.91;45.66;98003.72;5006538;28;103087;-78
2021/07/06 08:57:42;;;;;;;1.80;0.90;;;;;;;31.64;46.15;98008.44;5005188;28;103237;-78
2021/07/06 09:00:13;;;;;;;1.75;0.82;;;;;;;31.66;46.58;98016.38;4997055;28;104764;-78
2021/07/06 09:02:42;;;;;;;1.47;0.90;;;;;;;30.88;47.04;98023.22;5010917;28;104928;-78
2021/07/06 09:05:20;;;;;;;1.50;0.93;;;;;;;30.97;47.79;98035.34;4995921;28;103070;-78
2021/07/06 09:07:48;;;;;;;1.30;1.00;;;;;;;30.58;49.10;98044.69;5006523;28;102853;-79
2021/07/06 09:10:18;;;;;;;2.20;0.93;;;;;;;30.10;49.10;98059.84;5004436;28;104763;-79
2021/07/06 09:12:49;;;;;;;2.45;1.10;;;;;;;29.35;50.35;98074.94;4993244;28;104668;-79
2021/07/06 09:15:26;;;;;;;3.00;1.17;;;;;;;28.82;51.54;98097.84;5009588;28;103501;-79
2021/07/06 09:18:08;;;;;;;5.35;1.63;;;;;;;26.99;55.91;98121.59;5012267;28;103122;-78
2021/07/06 09:20:38;;;;;;;4.38;1.52;;;;;;;25.74;62.35;98140.97;5005584;28;112544;-78
2021/07/06 09:23:23;;;;;;;7.63;2.08;;;;;;;25.14;65.05;98149.69;5005792;28;104467;-80
2021/07/06 09:26:11;;;;;;;5.18;1.70;;;;;;;25.13;65.02;98178.59;5005128;28;103262;-78
2021/07/06 09:28:42;;;;;;;6.25;2.10;;;;;;;24.55;65.67;98193.94;5005067;28;103215;-76
2021/07/06 09:31:18;;;;;;;5.53;1.80;;;;;;;24.90;65.88;98207.19;5004925;28;103932;-77
2021/07/06 09:33:51;;;;;;;4.20;1.75;;;;;;;25.19;64.83;98209.31;4994259;28;104247;-75
2021/07/06 09:36:28;;;;;;;1.83;1.40;;;;;;;24.61;64.29;98209.31;4986957;28;103282;-78
2021/07/06 09:39:01;;;;;;;5.10;1.10;;;;;;;24.85;64.25;98224.00;5005697;28;103421;-76
2021/07/06 09:41:29;;;;;;;3.80;0.80;;;;;;;24.76;63.45;98206.34;5003046;28;105002;-76
2021/07/06 09:44:14;;;;;;;2.13;0.85;;;;;;;24.26;66.14;98202.50;5008905;28;103765;-76
2021/07/06 09:46:47;;;;;;;3.97;0.80;;;;;;;24.45;64.48;98212.44;4984480;28;103170;-76
2021/07/06 09:49:17;;;;;;;1.60;1.00;;;;;;;23.90;66.78;98215.56;5005115;28;102845;-76
2021/07/06 09:51:55;;;;;;;1.47;0.80;;;;;;;24.07;67.25;98209.56;5001736;28;103795;-77
2021/07/06 09:54:25;;;;;;;2.07;0.80;;;;;;;23.67;67.50;98216.78;5003262;28;103598;-76
2021/07/06 09:56:54;;;;;;;1.80;0.80;;;;;;;24.12;66.85;98208.94;5004046;28;103341;-75
2021/07/06 09:59:25;;;;;;;0.98;0.60;;;;;;;24.27;66.64;98196.06;5001077;28;103361;-76
2021/07/06 10:01:54;;;;;;;1.70;0.80;;;;;;;24.39;66.49;98188.16;5007357;28;103919;-77
2021/07/06 10:04:24;;;;;;;1.00;0.80;;;;;;;24.88;65.51;98193.88;5000088;28;111818;-76
2021/07/06 10:06:52;;;;;;;1.02;0.57;;;;;;;25.47;64.88;98180.09;4996327;28;102877;-76
2021/07/06 10:09:20;;;;;;;2.03;0.90;;;;;;;25.27;64.88;98177.47;4972738;28;103008;-76
2021/07/06 10:11:49;;;;;;;1.20;0.80;;;;;;;24.44;68.22;98169.47;5002134;28;103888;-76
2021/07/06 10:14:17;;;;;;;2.45;0.90;;;;;;;24.91;66.26;98171.00;5011468;28;104519;-76
2021/07/06 10:16:47;;;;;;;1.30;0.80;;;;;;;24.14;68.70;98166.41;5002332;28;103318;-77
2021/07/06 10:19:15;;;;;;;1.40;0.80;;;;;;;24.68;67.78;98166.06;5003725;28;103345;-78
2021/07/06 10:21:43;;;;;;;2.10;0.88;;;;;;;24.25;66.56;98173.88;5002583;28;104283;-76
2021/07/06 10:24:14;;;;;;;1.60;0.87;;;;;;;23.36;70.96;98170.66;5011720;28;103728;-77
2021/07/06 10:26:44;;;;;;;1.42;0.80;;;;;;;23.79;70.00;98165.75;5003439;28;103349;-77
2021/07/06 10:29:12;;;;;;;1.48;0.77;;;;;;;24.42;68.43;98172.34;5002369;28;103568;-77
2021/07/06 10:31:46;;;;;;;2.40;0.70;;;;;;;23.95;68.85;98181.53;5002561;28;104129;-77
2021/07/06 10:34:24;;;;;;;1.43;0.90;;;;;;;25.03;67.17;98172.00;5002752;28;105138;-77
2021/07/06 10:36:53;;;;;;;2.20;1.00;;;;;;;24.29;68.99;98161.59;5000435;28;103012;-77
2021/07/06 10:39:42;;;;;;;1.70;0.80;;;;;;;24.13;68.55;98152.09;5001108;28;103104;-77
2021/07/06 10:42:12;;;;;;;1.40;0.83;;;;;;;24.51;69.14;98144.09;5000169;28;103925;-77
2021/07/06 10:44:42;;;;;;;0.80;0.70;;;;;;;25.10;66.75;98143.06;5003856;28;105174;-77
2021/07/06 10:47:39;;;;;;;1.95;0.75;;;;;;;25.51;67.49;98138.06;5004631;28;103342;-85
2021/07/06 10:50:24;;;;;;;1.25;0.60;;;;;;;25.18;65.35;98132.00;4992938;28;104808;-76
2021/07/06 10:53:15;;;;;;;1.13;0.68;;;;;;;25.65;64.67;98125.25;5006379;28;104803;-76
2021/07/06 10:55:44;;;;;;;1.30;0.80;;;;;;;24.49;66.40;98112.97;5005638;28;110637;-76
2021/07/06 10:58:32;;;;;;;1.10;0.80;;;;;;;24.54;68.97;98116.69;5012558;28;102923;-77
2021/07/06 11:01:00;;;;;;;0.80;0.80;;;;;;;25.34;65.39;98113.41;5010415;28;103000;-79
2021/07/06 11:03:40;;;;;;;1.58;0.82;;;;;;;26.21;62.59;98130.63;5010842;28;110805;-76
2021/07/06 11:06:54;;;;;;;1.00;0.60;;;;;;;25.51;63.88;98129.13;5000878;28;103289;-74
2021/07/06 11:10:04;;;;;;;0.75;0.68;;;;;;;25.58;64.16;98141.53;4993516;28;103068;-74
2021/07/06 11:12:37;;;;;;;1.10;0.77;;;;;;;26.46;61.51;98164.72;5021068;28;102916;-76
2021/07/06 11:15:15;;;;;;;1.13;0.73;;;;;;;26.29;62.28;98160.09;5011888;28;103938;-75
2021/07/06 11:17:45;;;;;;;1.40;0.70;;;;;;;24.84;64.82;98146.72;5011978;28;103740;-78
2021/07/06 11:20:17;;;;;;;1.65;0.70;;;;;;;25.99;61.44;98151.00;5006819;28;102964;-79
2021/07/06 11:22:47;;;;;;;0.70;0.70;;;;;;;26.21;62.35;98146.84;5006419;28;103070;-75
2021/07/06 11:25:21;;;;;;;0.70;0.70;;;;;;;26.21;61.31;98153.09;4986671;28;105853;-75
2021/07/06 11:27:58;;;;;;;0.80;0.70;;;;;;;26.52;58.99;98144.03;5005633;28;103652;-74
2021/07/06 11:30:28;;;;;;;0.95;0.70;;;;;;;26.03;61.45;98153.03;4982684;28;103392;-79
2021/07/06 11:33:07;;;;;;;1.57;0.60;;;;;;;26.29;60.04;98166.34;5003301;28;103222;-77
2021/07/06 11:35:39;;;;;;;0.50;0.50;;;;;;;27.09;58.03;98152.75;4997728;28;103209;-73
2021/07/06 11:38:09;;;;;;;0.70;0.60;;;;;;;27.12;57.59;98153.09;4991903;28;104575;-74